sensor_id;sensor_type;location;lat;lon;timestamp;P1;P2;P0
64138;PMS5003;50435;43.700;-79.318;2023-05-07T00:01:48;0;0;
64138;PMS5003;50435;43.700;-79.318;2023-05-07T00:04:16;1;1;
64138;PMS5003;50435;43.700;-79.318;2023-05-07T00:06:44;0;0;
64138;PMS5003;50435;43.700;-79.318;2023-05-07T00:09:11;1;1;
64138;PMS5003;50435;43.700;-79.318;2023-05-07T00:11:40;0;0;
64138;PMS5003;50435;43.700;-79.318;2023-05-07T00:14:07;2;1;
64138;PMS5003;50435;43.700;-79.318;2023-05-07T00:16:35;1;1;
64138;PMS5003;50435;43.700;-79.318;2023-05-07T00:19:03;1;1;
64138;PMS5003;50435;43.700;-79.318;2023-05-07T00:21:30;0;0;
64138;PMS5003;50435;43.700;-79.318;2023-05-07T00:23:58;1;1;
64138;PMS5003;50435;43.700;-79.318;2023-05-07T00:26:26;1;1;
64138;PMS5003;50435;43.700;-79.318;2023-05-07T00:28:53;3;2;
64138;PMS5003;50435;43.700;-79.318;2023-05-07T00:31:21;0;0;
64138;PMS5003;50435;43.700;-79.318;2023-05-07T00:33:48;0;0;
64138;PMS5003;50435;43.700;-79.318;2023-05-07T00:36:16;1;1;
64138;PMS5003;50435;43.700;-79.318;2023-05-07T00:38:44;2;2;
64138;PMS5003;50435;43.700;-79.318;2023-05-07T00:41:11;4;2;
64138;PMS5003;50435;43.700;-79.318;2023-05-07T00:43:39;1;1;
64138;PMS5003;50435;43.700;-79.318;2023-05-07T00:46:07;2;2;
64138;PMS5003;50435;43.700;-79.318;2023-05-07T00:48:34;2;2;
64138;PMS5003;50435;43.700;-79.318;2023-05-07T00:51:02;3;1;
64138;PMS5003;50435;43.700;-79.318;2023-05-07T00:53:30;1;1;
64138;PMS5003;50435;43.700;-79.318;2023-05-07T00:55:57;4;4;
64138;PMS5003;50435;43.700;-79.318;2023-05-07T00:58:25;3;3;
64138;PMS5003;50435;43.700;-79.318;2023-05-07T01:00:53;3;3;
64138;PMS5003;50435;43.700;-79.318;2023-05-07T01:03:20;3;3;
64138;PMS5003;50435;43.700;-79.318;2023-05-07T01:05:48;2;2;
64138;PMS5003;50435;43.700;-79.318;2023-05-07T01:08:17;4;4;
64138;PMS5003;50435;43.700;-79.318;2023-05-07T01:10:45;5;5;
64138;PMS5003;50435;43.700;-79.318;2023-05-07T01:13:13;5;5;
64138;PMS5003;50435;43.700;-79.318;2023-05-07T01:15:42;3;3;
64138;PMS5003;50435;43.700;-79.318;2023-05-07T01:18:10;6;6;
64138;PMS5003;50435;43.700;-79.318;2023-05-07T01:20:38;5;4;
64138;PMS5003;50435;43.700;-79.318;2023-05-07T01:23:05;6;6;
64138;PMS5003;50435;43.700;-79.318;2023-05-07T01:25:34;5;5;
64138;PMS5003;50435;43.700;-79.318;2023-05-07T01:28:01;7;7;
64138;PMS5003;50435;43.700;-79.318;2023-05-07T01:30:29;5;5;
64138;PMS5003;50435;43.700;-79.318;2023-05-07T01:33:00;9;8;
64138;PMS5003;50435;43.700;-79.318;2023-05-07T01:35:33;6;6;
64138;PMS5003;50435;43.700;-79.318;2023-05-07T01:38:04;10;8;
64138;PMS5003;50435;43.700;-79.318;2023-05-07T01:40:31;9;8;
64138;PMS5003;50435;43.700;-79.318;2023-05-07T01:43:00;10;8;
64138;PMS5003;50435;43.700;-79.318;2023-05-07T01:45:28;9;9;
64138;PMS5003;50435;43.700;-79.318;2023-05-07T01:47:56;10;9;
64138;PMS5003;50435;43.700;-79.318;2023-05-07T01:50:25;10;7;
64138;PMS5003;50435;43.700;-79.318;2023-05-07T01:52:53;8;8;
64138;PMS5003;50435;43.700;-79.318;2023-05-07T01:55:21;10;9;
64138;PMS5003;50435;43.700;-79.318;2023-05-07T01:57:49;11;11;
64138;PMS5003;50435;43.700;-79.318;2023-05-07T02:00:16;13;13;
64138;PMS5003;50435;43.700;-79.318;2023-05-07T02:02:44;12;10;
64138;PMS5003;50435;43.700;-79.318;2023-05-07T02:05:12;11;10;
64138;PMS5003;50435;43.700;-79.318;2023-05-07T02:07:39;18;14;
64138;PMS5003;50435;43.700;-79.318;2023-05-07T02:10:07;13;11;
64138;PMS5003;50435;43.700;-79.318;2023-05-07T02:12:35;16;14;
64138;PMS5003;50435;43.700;-79.318;2023-05-07T02:15:04;16;15;
64138;PMS5003;50435;43.700;-79.318;2023-05-07T02:17:31;17;15;
64138;PMS5003;50435;43.700;-79.318;2023-05-07T02:19:59;19;17;
64138;PMS5003;50435;43.700;-79.318;2023-05-07T02:22:27;15;14;
64138;PMS5003;50435;43.700;-79.318;2023-05-07T02:24:55;17;17;
64138;PMS5003;50435;43.700;-79.318;2023-05-07T02:27:23;21;18;
64138;PMS5003;50435;43.700;-79.318;2023-05-07T02:29:50;18;17;
64138;PMS5003;50435;43.700;-79.318;2023-05-07T02:32:18;19;18;
64138;PMS5003;50435;43.700;-79.318;2023-05-07T02:34:45;22;22;
64138;PMS5003;50435;43.700;-79.318;2023-05-07T02:37:12;18;17;
64138;PMS5003;50435;43.700;-79.318;2023-05-07T02:39:40;23;20;
64138;PMS5003;50435;43.700;-79.318;2023-05-07T02:42:07;27;27;
64138;PMS5003;50435;43.700;-79.318;2023-05-07T02:44:34;31;26;
64138;PMS5003;50435;43.700;-79.318;2023-05-07T02:47:02;27;24;
64138;PMS5003;50435;43.700;-79.318;2023-05-07T02:49:30;30;28;
64138;PMS5003;50435;43.700;-79.318;2023-05-07T02:51:57;32;30;
64138;PMS5003;50435;43.700;-79.318;2023-05-07T02:54:24;33;29;
64138;PMS5003;50435;43.700;-79.318;2023-05-07T02:56:52;32;27;
64138;PMS5003;50435;43.700;-79.318;2023-05-07T02:59:20;33;31;
64138;PMS5003;50435;43.700;-79.318;2023-05-07T03:01:48;78;73;
64138;PMS5003;50435;43.700;-79.318;2023-05-07T03:04:15;85;80;
64138;PMS5003;50435;43.700;-79.318;2023-05-07T03:06:43;87;78;
64138;PMS5003;50435;43.700;-79.318;2023-05-07T03:09:10;84;79;
64138;PMS5003;50435;43.700;-79.318;2023-05-07T03:11:38;86;82;
64138;PMS5003;50435;43.700;-79.318;2023-05-07T03:14:06;84;83;
64138;PMS5003;50435;43.700;-79.318;2023-05-07T03:16:33;95;88;
64138;PMS5003;50435;43.700;-79.318;2023-05-07T03:19:00;86;83;
64138;PMS5003;50435;43.700;-79.318;2023-05-07T03:21:28;78;78;
64138;PMS5003;50435;43.700;-79.318;2023-05-07T03:23:55;83;79;
64138;PMS5003;50435;43.700;-79.318;2023-05-07T03:26:23;92;81;
64138;PMS5003;50435;43.700;-79.318;2023-05-07T03:28:51;91;88;
64138;PMS5003;50435;43.700;-79.318;2023-05-07T03:31:18;91;84;
64138;PMS5003;50435;43.700;-79.318;2023-05-07T03:33:50;82;79;
64138;PMS5003;50435;43.700;-79.318;2023-05-07T03:36:18;81;76;
64138;PMS5003;50435;43.700;-79.318;2023-05-07T03:38:46;75;70;
64138;PMS5003;50435;43.700;-79.318;2023-05-07T03:41:13;74;71;
64138;PMS5003;50435;43.700;-79.318;2023-05-07T03:43:40;72;70;
64138;PMS5003;50435;43.700;-79.318;2023-05-07T03:46:08;80;77;
64138;PMS5003;50435;43.700;-79.318;2023-05-07T03:48:36;80;75;
64138;PMS5003;50435;43.700;-79.318;2023-05-07T03:51:03;78;73;
64138;PMS5003;50435;43.700;-79.318;2023-05-07T03:53:31;71;70;
64138;PMS5003;50435;43.700;-79.318;2023-05-07T03:55:59;69;65;
64138;PMS5003;50435;43.700;-79.318;2023-05-07T03:58:26;69;63;
64138;PMS5003;50435;43.700;-79.318;2023-05-07T04:00:54;74;71;
64138;PMS5003;50435;43.700;-79.318;2023-05-07T04:03:21;82;74;
64138;PMS5003;50435;43.700;-79.318;2023-05-07T04:05:49;83;78;
64138;PMS5003;50435;43.700;-79.318;2023-05-07T04:08:16;72;69;
64138;PMS5003;50435;43.700;-79.318;2023-05-07T04:10:44;78;75;
64138;PMS5003;50435;43.700;-79.318;2023-05-07T04:13:11;71;68;
64138;PMS5003;50435;43.700;-79.318;2023-05-07T04:15:40;74;67;
64138;PMS5003;50435;43.700;-79.318;2023-05-07T04:18:07;74;69;
64138;PMS5003;50435;43.700;-79.318;2023-05-07T04:20:35;67;66;
64138;PMS5003;50435;43.700;-79.318;2023-05-07T04:23:03;64;62;
64138;PMS5003;50435;43.700;-79.318;2023-05-07T04:25:30;62;60;
64138;PMS5003;50435;43.700;-79.318;2023-05-07T04:27:58;57;57;
64138;PMS5003;50435;43.700;-79.318;2023-05-07T04:30:25;59;56;
64138;PMS5003;50435;43.700;-79.318;2023-05-07T04:32:52;61;59;
64138;PMS5003;50435;43.700;-79.318;2023-05-07T04:35:19;56;54;
64138;PMS5003;50435;43.700;-79.318;2023-05-07T04:37:47;54;54;
64138;PMS5003;50435;43.700;-79.318;2023-05-07T04:40:14;49;46;
64138;PMS5003;50435;43.700;-79.318;2023-05-07T04:42:42;52;47;
64138;PMS5003;50435;43.700;-79.318;2023-05-07T04:45:10;51;46;
64138;PMS5003;50435;43.700;-79.318;2023-05-07T04:47:38;48;45;
64138;PMS5003;50435;43.700;-79.318;2023-05-07T04:50:06;50;47;
64138;PMS5003;50435;43.700;-79.318;2023-05-07T04:52:34;45;44;
64138;PMS5003;50435;43.700;-79.318;2023-05-07T04:55:02;46;45;
64138;PMS5003;50435;43.700;-79.318;2023-05-07T04:57:30;48;45;
64138;PMS5003;50435;43.700;-79.318;2023-05-07T04:59:57;42;41;
64138;PMS5003;50435;43.700;-79.318;2023-05-07T05:02:25;43;41;
64138;PMS5003;50435;43.700;-79.318;2023-05-07T05:04:52;42;38;
64138;PMS5003;50435;43.700;-79.318;2023-05-07T05:07:20;39;36;
64138;PMS5003;50435;43.700;-79.318;2023-05-07T05:09:48;34;33;
64138;PMS5003;50435;43.700;-79.318;2023-05-07T05:12:15;37;34;
64138;PMS5003;50435;43.700;-79.318;2023-05-07T05:14:43;40;37;
64138;PMS5003;50435;43.700;-79.318;2023-05-07T05:17:10;34;34;
64138;PMS5003;50435;43.700;-79.318;2023-05-07T05:19:38;35;33;
64138;PMS5003;50435;43.700;-79.318;2023-05-07T05:22:05;32;31;
64138;PMS5003;50435;43.700;-79.318;2023-05-07T05:24:33;30;29;
64138;PMS5003;50435;43.700;-79.318;2023-05-07T05:27:00;33;31;
64138;PMS5003;50435;43.700;-79.318;2023-05-07T05:29:27;33;30;
64138;PMS5003;50435;43.700;-79.318;2023-05-07T05:31:55;34;30;
64138;PMS5003;50435;43.700;-79.318;2023-05-07T05:34:22;26;26;
64138;PMS5003;50435;43.700;-79.318;2023-05-07T05:36:49;32;27;
64138;PMS5003;50435;43.700;-79.318;2023-05-07T05:39:17;27;26;
64138;PMS5003;50435;43.700;-79.318;2023-05-07T05:41:44;30;27;
64138;PMS5003;50435;43.700;-79.318;2023-05-07T05:44:12;23;23;
64138;PMS5003;50435;43.700;-79.318;2023-05-07T05:46:39;26;25;
64138;PMS5003;50435;43.700;-79.318;2023-05-07T05:49:07;27;25;
64138;PMS5003;50435;43.700;-79.318;2023-05-07T05:51:34;23;22;
64138;PMS5003;50435;43.700;-79.318;2023-05-07T05:54:01;22;22;
64138;PMS5003;50435;43.700;-79.318;2023-05-07T05:56:29;22;20;
64138;PMS5003;50435;43.700;-79.318;2023-05-07T05:58:56;23;22;
64138;PMS5003;50435;43.700;-79.318;2023-05-07T06:01:24;25;22;
64138;PMS5003;50435;43.700;-79.318;2023-05-07T06:03:52;21;19;
64138;PMS5003;50435;43.700;-79.318;2023-05-07T06:06:19;23;21;
64138;PMS5003;50435;43.700;-79.318;2023-05-07T06:08:47;22;21;
64138;PMS5003;50435;43.700;-79.318;2023-05-07T06:11:14;21;18;
64138;PMS5003;50435;43.700;-79.318;2023-05-07T06:13:42;21;19;
64138;PMS5003;50435;43.700;-79.318;2023-05-07T06:16:09;18;18;
64138;PMS5003;50435;43.700;-79.318;2023-05-07T06:18:37;21;21;
64138;PMS5003;50435;43.700;-79.318;2023-05-07T06:21:05;18;18;
64138;PMS5003;50435;43.700;-79.318;2023-05-07T06:23:32;14;14;
64138;PMS5003;50435;43.700;-79.318;2023-05-07T06:25:59;21;16;
64138;PMS5003;50435;43.700;-79.318;2023-05-07T06:28:27;18;18;
64138;PMS5003;50435;43.700;-79.318;2023-05-07T06:30:54;17;16;
64138;PMS5003;50435;43.700;-79.318;2023-05-07T06:33:22;23;19;
64138;PMS5003;50435;43.700;-79.318;2023-05-07T06:35:49;15;14;
64138;PMS5003;50435;43.700;-79.318;2023-05-07T06:38:17;16;14;
64138;PMS5003;50435;43.700;-79.318;2023-05-07T06:40:47;16;15;
64138;PMS5003;50435;43.700;-79.318;2023-05-07T06:43:15;17;14;
64138;PMS5003;50435;43.700;-79.318;2023-05-07T06:45:43;16;15;
64138;PMS5003;50435;43.700;-79.318;2023-05-07T06:48:10;19;16;
64138;PMS5003;50435;43.700;-79.318;2023-05-07T06:50:37;17;16;
64138;PMS5003;50435;43.700;-79.318;2023-05-07T06:53:05;16;16;
64138;PMS5003;50435;43.700;-79.318;2023-05-07T06:55:33;17;16;
64138;PMS5003;50435;43.700;-79.318;2023-05-07T06:58:00;15;15;
64138;PMS5003;50435;43.700;-79.318;2023-05-07T07:00:28;20;19;
64138;PMS5003;50435;43.700;-79.318;2023-05-07T07:02:56;17;17;
64138;PMS5003;50435;43.700;-79.318;2023-05-07T07:05:24;16;14;
64138;PMS5003;50435;43.700;-79.318;2023-05-07T07:07:51;16;14;
64138;PMS5003;50435;43.700;-79.318;2023-05-07T07:10:19;16;15;
64138;PMS5003;50435;43.700;-79.318;2023-05-07T07:12:48;14;14;
64138;PMS5003;50435;43.700;-79.318;2023-05-07T07:15:16;14;13;
64138;PMS5003;50435;43.700;-79.318;2023-05-07T07:17:44;17;17;
64138;PMS5003;50435;43.700;-79.318;2023-05-07T07:20:11;16;16;
64138;PMS5003;50435;43.700;-79.318;2023-05-07T07:22:39;15;13;
64138;PMS5003;50435;43.700;-79.318;2023-05-07T07:25:07;14;14;
64138;PMS5003;50435;43.700;-79.318;2023-05-07T07:27:35;12;12;
64138;PMS5003;50435;43.700;-79.318;2023-05-07T07:30:03;16;14;
64138;PMS5003;50435;43.700;-79.318;2023-05-07T07:32:32;13;13;
64138;PMS5003;50435;43.700;-79.318;2023-05-07T07:34:59;17;15;
64138;PMS5003;50435;43.700;-79.318;2023-05-07T07:37:27;13;13;
64138;PMS5003;50435;43.700;-79.318;2023-05-07T07:39:55;12;12;
64138;PMS5003;50435;43.700;-79.318;2023-05-07T07:42:22;13;13;
64138;PMS5003;50435;43.700;-79.318;2023-05-07T07:44:50;15;12;
64138;PMS5003;50435;43.700;-79.318;2023-05-07T07:47:17;20;18;
64138;PMS5003;50435;43.700;-79.318;2023-05-07T07:49:45;19;18;
64138;PMS5003;50435;43.700;-79.318;2023-05-07T07:52:12;16;14;
64138;PMS5003;50435;43.700;-79.318;2023-05-07T07:54:39;14;14;
64138;PMS5003;50435;43.700;-79.318;2023-05-07T07:57:07;17;17;
64138;PMS5003;50435;43.700;-79.318;2023-05-07T07:59:34;12;12;
64138;PMS5003;50435;43.700;-79.318;2023-05-07T08:02:01;16;14;
64138;PMS5003;50435;43.700;-79.318;2023-05-07T08:04:29;15;14;
64138;PMS5003;50435;43.700;-79.318;2023-05-07T08:06:56;13;13;
64138;PMS5003;50435;43.700;-79.318;2023-05-07T08:09:24;16;15;
64138;PMS5003;50435;43.700;-79.318;2023-05-07T08:11:51;24;19;
64138;PMS5003;50435;43.700;-79.318;2023-05-07T08:14:19;15;15;
64138;PMS5003;50435;43.700;-79.318;2023-05-07T08:16:46;16;15;
64138;PMS5003;50435;43.700;-79.318;2023-05-07T08:19:14;18;15;
64138;PMS5003;50435;43.700;-79.318;2023-05-07T08:21:42;11;11;
64138;PMS5003;50435;43.700;-79.318;2023-05-07T08:24:10;17;14;
64138;PMS5003;50435;43.700;-79.318;2023-05-07T08:26:37;14;14;
64138;PMS5003;50435;43.700;-79.318;2023-05-07T08:29:04;14;14;
64138;PMS5003;50435;43.700;-79.318;2023-05-07T08:31:32;16;16;
64138;PMS5003;50435;43.700;-79.318;2023-05-07T08:33:59;14;12;
64138;PMS5003;50435;43.700;-79.318;2023-05-07T08:36:27;11;11;
64138;PMS5003;50435;43.700;-79.318;2023-05-07T08:38:55;13;12;
64138;PMS5003;50435;43.700;-79.318;2023-05-07T08:41:22;12;11;
64138;PMS5003;50435;43.700;-79.318;2023-05-07T08:43:50;15;15;
64138;PMS5003;50435;43.700;-79.318;2023-05-07T08:46:18;14;14;
64138;PMS5003;50435;43.700;-79.318;2023-05-07T08:48:47;15;15;
64138;PMS5003;50435;43.700;-79.318;2023-05-07T08:51:16;16;16;
64138;PMS5003;50435;43.700;-79.318;2023-05-07T08:53:46;16;16;
64138;PMS5003;50435;43.700;-79.318;2023-05-07T08:56:14;18;17;
64138;PMS5003;50435;43.700;-79.318;2023-05-07T08:58:42;17;16;
64138;PMS5003;50435;43.700;-79.318;2023-05-07T09:01:12;14;14;
64138;PMS5003;50435;43.700;-79.318;2023-05-07T09:03:42;14;14;
64138;PMS5003;50435;43.700;-79.318;2023-05-07T09:06:12;13;13;
64138;PMS5003;50435;43.700;-79.318;2023-05-07T09:08:40;12;12;
64138;PMS5003;50435;43.700;-79.318;2023-05-07T09:11:07;14;14;
64138;PMS5003;50435;43.700;-79.318;2023-05-07T09:13:35;16;14;
64138;PMS5003;50435;43.700;-79.318;2023-05-07T09:16:09;17;15;
64138;PMS5003;50435;43.700;-79.318;2023-05-07T09:18:40;17;16;
64138;PMS5003;50435;43.700;-79.318;2023-05-07T09:21:09;15;15;
64138;PMS5003;50435;43.700;-79.318;2023-05-07T09:23:37;18;15;
64138;PMS5003;50435;43.700;-79.318;2023-05-07T09:26:06;13;13;
64138;PMS5003;50435;43.700;-79.318;2023-05-07T09:28:34;16;14;
64138;PMS5003;50435;43.700;-79.318;2023-05-07T09:31:02;14;13;
64138;PMS5003;50435;43.700;-79.318;2023-05-07T09:33:30;13;13;
64138;PMS5003;50435;43.700;-79.318;2023-05-07T09:35:57;15;15;
64138;PMS5003;50435;43.700;-79.318;2023-05-07T09:38:24;15;14;
64138;PMS5003;50435;43.700;-79.318;2023-05-07T09:41:01;15;12;
64138;PMS5003;50435;43.700;-79.318;2023-05-07T09:43:31;12;12;
64138;PMS5003;50435;43.700;-79.318;2023-05-07T09:46:01;15;13;
64138;PMS5003;50435;43.700;-79.318;2023-05-07T09:48:32;14;13;
64138;PMS5003;50435;43.700;-79.318;2023-05-07T09:51:05;12;12;
64138;PMS5003;50435;43.700;-79.318;2023-05-07T09:53:37;15;15;
64138;PMS5003;50435;43.700;-79.318;2023-05-07T09:56:07;14;13;
64138;PMS5003;50435;43.700;-79.318;2023-05-07T09:58:36;16;14;
64138;PMS5003;50435;43.700;-79.318;2023-05-07T10:01:05;17;17;
64138;PMS5003;50435;43.700;-79.318;2023-05-07T10:03:34;14;13;
64138;PMS5003;50435;43.700;-79.318;2023-05-07T10:06:03;15;15;
64138;PMS5003;50435;43.700;-79.318;2023-05-07T10:08:30;18;15;
64138;PMS5003;50435;43.700;-79.318;2023-05-07T10:10:59;14;13;
64138;PMS5003;50435;43.700;-79.318;2023-05-07T10:13:26;13;12;
64138;PMS5003;50435;43.700;-79.318;2023-05-07T10:15:55;15;15;
64138;PMS5003;50435;43.700;-79.318;2023-05-07T10:18:24;14;14;
64138;PMS5003;50435;43.700;-79.318;2023-05-07T10:20:51;12;12;
64138;PMS5003;50435;43.700;-79.318;2023-05-07T10:23:22;15;14;
64138;PMS5003;50435;43.700;-79.318;2023-05-07T10:25:51;18;13;
64138;PMS5003;50435;43.700;-79.318;2023-05-07T10:28:20;12;11;
64138;PMS5003;50435;43.700;-79.318;2023-05-07T10:30:53;13;13;
64138;PMS5003;50435;43.700;-79.318;2023-05-07T10:33:33;15;13;
64138;PMS5003;50435;43.700;-79.318;2023-05-07T10:36:04;14;14;
64138;PMS5003;50435;43.700;-79.318;2023-05-07T10:38:32;20;18;
64138;PMS5003;50435;43.700;-79.318;2023-05-07T10:41:00;12;12;
64138;PMS5003;50435;43.700;-79.318;2023-05-07T10:43:38;16;16;
64138;PMS5003;50435;43.700;-79.318;2023-05-07T10:46:11;16;13;
64138;PMS5003;50435;43.700;-79.318;2023-05-07T10:49:13;14;14;
64138;PMS5003;50435;43.700;-79.318;2023-05-07T10:51:40;15;14;
64138;PMS5003;50435;43.700;-79.318;2023-05-07T10:54:23;16;16;
64138;PMS5003;50435;43.700;-79.318;2023-05-07T10:56:50;15;14;
64138;PMS5003;50435;43.700;-79.318;2023-05-07T10:59:34;14;13;
64138;PMS5003;50435;43.700;-79.318;2023-05-07T11:02:03;13;12;
64138;PMS5003;50435;43.700;-79.318;2023-05-07T11:04:31;11;11;
64138;PMS5003;50435;43.700;-79.318;2023-05-07T11:07:30;13;13;
64138;PMS5003;50435;43.700;-79.318;2023-05-07T11:09:59;16;15;
64138;PMS5003;50435;43.700;-79.318;2023-05-07T11:13:00;15;13;
64138;PMS5003;50435;43.700;-79.318;2023-05-07T11:15:43;11;11;
64138;PMS5003;50435;43.700;-79.318;2023-05-07T11:18:12;11;10;
64138;PMS5003;50435;43.700;-79.318;2023-05-07T11:20:49;13;12;
64138;PMS5003;50435;43.700;-79.318;2023-05-07T11:23:58;17;16;
64138;PMS5003;50435;43.700;-79.318;2023-05-07T11:26:27;16;16;
64138;PMS5003;50435;43.700;-79.318;2023-05-07T11:28:57;13;13;
64138;PMS5003;50435;43.700;-79.318;2023-05-07T11:31:25;14;14;
64138;PMS5003;50435;43.700;-79.318;2023-05-07T11:33:54;12;11;
64138;PMS5003;50435;43.700;-79.318;2023-05-07T11:36:22;13;11;
64138;PMS5003;50435;43.700;-79.318;2023-05-07T11:38:50;13;12;
64138;PMS5003;50435;43.700;-79.318;2023-05-07T11:41:18;14;13;
64138;PMS5003;50435;43.700;-79.318;2023-05-07T11:43:54;12;12;
64138;PMS5003;50435;43.700;-79.318;2023-05-07T11:46:23;11;11;
64138;PMS5003;50435;43.700;-79.318;2023-05-07T11:48:51;13;13;
64138;PMS5003;50435;43.700;-79.318;2023-05-07T11:51:19;14;14;
64138;PMS5003;50435;43.700;-79.318;2023-05-07T11:53:47;12;12;
64138;PMS5003;50435;43.700;-79.318;2023-05-07T11:56:15;11;11;
64138;PMS5003;50435;43.700;-79.318;2023-05-07T11:58:45;16;16;
64138;PMS5003;50435;43.700;-79.318;2023-05-07T12:01:13;12;11;
64138;PMS5003;50435;43.700;-79.318;2023-05-07T12:03:41;14;13;
64138;PMS5003;50435;43.700;-79.318;2023-05-07T12:06:11;12;12;
64138;PMS5003;50435;43.700;-79.318;2023-05-07T12:08:40;12;9;
64138;PMS5003;50435;43.700;-79.318;2023-05-07T12:11:09;11;11;
64138;PMS5003;50435;43.700;-79.318;2023-05-07T12:13:40;12;10;
64138;PMS5003;50435;43.700;-79.318;2023-05-07T12:16:08;11;10;
64138;PMS5003;50435;43.700;-79.318;2023-05-07T12:18:35;9;8;
64138;PMS5003;50435;43.700;-79.318;2023-05-07T12:21:05;7;7;
64138;PMS5003;50435;43.700;-79.318;2023-05-07T12:23:33;9;9;
64138;PMS5003;50435;43.700;-79.318;2023-05-07T12:26:02;9;8;
64138;PMS5003;50435;43.700;-79.318;2023-05-07T12:28:31;11;10;
64138;PMS5003;50435;43.700;-79.318;2023-05-07T12:31:03;6;6;
64138;PMS5003;50435;43.700;-79.318;2023-05-07T12:33:31;6;6;
64138;PMS5003;50435;43.700;-79.318;2023-05-07T12:36:02;12;9;
64138;PMS5003;50435;43.700;-79.318;2023-05-07T12:38:34;9;8;
64138;PMS5003;50435;43.700;-79.318;2023-05-07T12:41:04;5;5;
64138;PMS5003;50435;43.700;-79.318;2023-05-07T12:43:32;6;5;
64138;PMS5003;50435;43.700;-79.318;2023-05-07T12:46:01;7;6;
64138;PMS5003;50435;43.700;-79.318;2023-05-07T12:48:30;7;7;
64138;PMS5003;50435;43.700;-79.318;2023-05-07T12:50:58;6;5;
64138;PMS5003;50435;43.700;-79.318;2023-05-07T12:53:27;5;5;
64138;PMS5003;50435;43.700;-79.318;2023-05-07T12:55:55;7;6;
64138;PMS5003;50435;43.700;-79.318;2023-05-07T12:58:25;4;4;
64138;PMS5003;50435;43.700;-79.318;2023-05-07T13:00:54;6;6;
64138;PMS5003;50435;43.700;-79.318;2023-05-07T13:03:24;5;5;
64138;PMS5003;50435;43.700;-79.318;2023-05-07T13:05:53;5;4;
64138;PMS5003;50435;43.700;-79.318;2023-05-07T13:08:30;5;5;
64138;PMS5003;50435;43.700;-79.318;2023-05-07T13:10:59;4;4;
64138;PMS5003;50435;43.700;-79.318;2023-05-07T13:13:27;7;6;
64138;PMS5003;50435;43.700;-79.318;2023-05-07T13:15:55;2;2;
64138;PMS5003;50435;43.700;-79.318;2023-05-07T13:18:24;4;3;
64138;PMS5003;50435;43.700;-79.318;2023-05-07T13:20:52;5;5;
64138;PMS5003;50435;43.700;-79.318;2023-05-07T13:23:20;5;5;
64138;PMS5003;50435;43.700;-79.318;2023-05-07T13:25:48;3;3;
64138;PMS5003;50435;43.700;-79.318;2023-05-07T13:28:16;4;4;
64138;PMS5003;50435;43.700;-79.318;2023-05-07T13:30:44;4;4;
64138;PMS5003;50435;43.700;-79.318;2023-05-07T13:33:11;3;3;
64138;PMS5003;50435;43.700;-79.318;2023-05-07T13:35:39;3;3;
64138;PMS5003;50435;43.700;-79.318;2023-05-07T13:38:06;5;3;
64138;PMS5003;50435;43.700;-79.318;2023-05-07T13:40:34;3;3;
64138;PMS5003;50435;43.700;-79.318;2023-05-07T13:43:02;3;3;
64138;PMS5003;50435;43.700;-79.318;2023-05-07T13:45:30;4;3;
64138;PMS5003;50435;43.700;-79.318;2023-05-07T13:47:58;3;3;
64138;PMS5003;50435;43.700;-79.318;2023-05-07T13:50:25;3;3;
64138;PMS5003;50435;43.700;-79.318;2023-05-07T13:52:53;3;3;
64138;PMS5003;50435;43.700;-79.318;2023-05-07T13:55:21;3;3;
64138;PMS5003;50435;43.700;-79.318;2023-05-07T13:57:54;5;5;
64138;PMS5003;50435;43.700;-79.318;2023-05-07T14:00:23;3;3;
64138;PMS5003;50435;43.700;-79.318;2023-05-07T14:02:50;3;3;
64138;PMS5003;50435;43.700;-79.318;2023-05-07T14:05:18;4;4;
64138;PMS5003;50435;43.700;-79.318;2023-05-07T14:07:46;3;3;
64138;PMS5003;50435;43.700;-79.318;2023-05-07T14:10:13;2;2;
64138;PMS5003;50435;43.700;-79.318;2023-05-07T14:12:41;2;2;
64138;PMS5003;50435;43.700;-79.318;2023-05-07T14:15:09;2;2;
64138;PMS5003;50435;43.700;-79.318;2023-05-07T14:17:37;3;3;
64138;PMS5003;50435;43.700;-79.318;2023-05-07T14:20:05;1;1;
64138;PMS5003;50435;43.700;-79.318;2023-05-07T14:22:35;4;4;
64138;PMS5003;50435;43.700;-79.318;2023-05-07T14:25:03;3;3;
64138;PMS5003;50435;43.700;-79.318;2023-05-07T14:27:30;2;2;
64138;PMS5003;50435;43.700;-79.318;2023-05-07T14:29:58;2;2;
64138;PMS5003;50435;43.700;-79.318;2023-05-07T14:32:26;3;3;
64138;PMS5003;50435;43.700;-79.318;2023-05-07T14:34:53;3;3;
64138;PMS5003;50435;43.700;-79.318;2023-05-07T14:37:21;1;1;
64138;PMS5003;50435;43.700;-79.318;2023-05-07T14:39:49;3;2;
64138;PMS5003;50435;43.700;-79.318;2023-05-07T14:42:17;2;2;
64138;PMS5003;50435;43.700;-79.318;2023-05-07T14:44:44;2;2;
64138;PMS5003;50435;43.700;-79.318;2023-05-07T14:47:12;3;3;
64138;PMS5003;50435;43.700;-79.318;2023-05-07T14:49:40;2;2;
64138;PMS5003;50435;43.700;-79.318;2023-05-07T14:52:07;1;1;
64138;PMS5003;50435;43.700;-79.318;2023-05-07T14:54:36;2;2;
64138;PMS5003;50435;43.700;-79.318;2023-05-07T14:57:04;2;2;
64138;PMS5003;50435;43.700;-79.318;2023-05-07T14:59:33;1;1;
64138;PMS5003;50435;43.700;-79.318;2023-05-07T15:02:01;2;2;
64138;PMS5003;50435;43.700;-79.318;2023-05-07T15:04:29;2;2;
64138;PMS5003;50435;43.700;-79.318;2023-05-07T15:06:56;1;1;
64138;PMS5003;50435;43.700;-79.318;2023-05-07T15:09:24;1;1;
64138;PMS5003;50435;43.700;-79.318;2023-05-07T15:11:52;2;1;
64138;PMS5003;50435;43.700;-79.318;2023-05-07T15:14:19;2;2;
64138;PMS5003;50435;43.700;-79.318;2023-05-07T15:16:47;2;2;
64138;PMS5003;50435;43.700;-79.318;2023-05-07T15:19:15;0;0;
64138;PMS5003;50435;43.700;-79.318;2023-05-07T15:21:43;0;0;
64138;PMS5003;50435;43.700;-79.318;2023-05-07T15:24:10;1;1;
64138;PMS5003;50435;43.700;-79.318;2023-05-07T15:26:38;1;1;
64138;PMS5003;50435;43.700;-79.318;2023-05-07T15:29:06;3;3;
64138;PMS5003;50435;43.700;-79.318;2023-05-07T15:31:34;4;3;
64138;PMS5003;50435;43.700;-79.318;2023-05-07T15:34:01;2;2;
64138;PMS5003;50435;43.700;-79.318;2023-05-07T15:36:29;1;1;
64138;PMS5003;50435;43.700;-79.318;2023-05-07T15:38:57;2;1;
64138;PMS5003;50435;43.700;-79.318;2023-05-07T15:41:24;0;0;
64138;PMS5003;50435;43.700;-79.318;2023-05-07T15:43:52;0;0;
64138;PMS5003;50435;43.700;-79.318;2023-05-07T15:46:20;1;1;
64138;PMS5003;50435;43.700;-79.318;2023-05-07T15:48:49;1;1;
64138;PMS5003;50435;43.700;-79.318;2023-05-07T15:51:17;1;1;
64138;PMS5003;50435;43.700;-79.318;2023-05-07T15:53:45;1;1;
64138;PMS5003;50435;43.700;-79.318;2023-05-07T15:56:12;2;1;
64138;PMS5003;50435;43.700;-79.318;2023-05-07T15:58:40;0;0;
64138;PMS5003;50435;43.700;-79.318;2023-05-07T16:01:08;2;2;
64138;PMS5003;50435;43.700;-79.318;2023-05-07T16:03:35;1;1;
64138;PMS5003;50435;43.700;-79.318;2023-05-07T16:06:03;1;1;